Time;durP1;ratioP1;P1;durP2;ratioP2;P2;SDS_P1;SDS_P2;PMS_P1;PMS_P2;Temp;Humidity;BMP_temperature;BMP_pressure;BME280_temperature;BME280_humidity;BME280_pressure;Samples;Min_cycle;Max_cycle;Signal;HPM_P1;HPM_P2
2021/08/11 00:00:04;;;;;;;;;;;;;;;27.28;40.26;94761.50;2970557;40;19944;-84
2021/08/11 00:02:06;;;;;;;;;;;;;;;27.20;40.45;94763.84;2969843;40;19935;-83
2021/08/11 00:04:07;;;;;;;;;;;;;;;27.12;40.60;94763.25;2968694;40;19940;-84
2021/08/11 00:06:09;;;;;;;;;;;;;;;27.12;40.61;94757.88;2969457;40;19940;-81
2021/08/11 00:08:10;;;;;;;;;;;;;;;27.10;40.40;94748.44;2965849;40;20018;-85
2021/08/11 00:10:12;;;;;;;;;;;;;;;27.10;40.79;94754.66;2966324;40;20012;-84
2021/08/11 00:12:14;;;;;;;;;;;;;;;27.09;40.59;94752.22;2968412;40;20343;-84
2021/08/11 00:14:15;;;;;;;;;;;;;;;27.01;40.70;94741.97;2968597;40;20230;-84
2021/08/11 00:16:17;;;;;;;;;;;;;;;26.99;41.02;94739.53;2968382;40;19942;-84
2021/08/11 00:18:18;;;;;;;;;;;;;;;27.00;41.09;94751.91;2967224;40;19932;-82
2021/08/11 00:20:22;;;;;;;;;;;;;;;27.00;41.06;94751.09;2963263;40;19964;-70
2021/08/11 00:22:23;;;;;;;;;;;;;;;26.94;40.90;94753.75;2964263;40;20217;-70
2021/08/11 00:24:25;;;;;;;;;;;;;;;26.95;41.06;94751.88;2969729;40;20194;-69
2021/08/11 00:26:27;;;;;;;;;;;;;;;26.95;40.94;94750.00;2964120;40;20053;-70
2021/08/11 00:28:28;;;;;;;;;;;;;;;26.98;41.10;94755.94;2965521;40;20007;-69
2021/08/11 00:30:30;;;;;;;;;;;;;;;26.99;41.50;94757.53;2966394;40;20372;-69
2021/08/11 00:32:32;;;;;;;;;;;;;;;26.99;41.15;94752.97;2964827;40;19948;-82
2021/08/11 00:34:33;;;;;;;;;;;;;;;26.99;41.33;94752.16;2963001;40;20529;-83
2021/08/11 00:36:35;;;;;;;;;;;;;;;26.96;41.50;94753.50;2967152;40;19943;-82
2021/08/11 00:38:36;;;;;;;;;;;;;;;26.89;41.78;94761.00;2970136;40;19977;-84
2021/08/11 00:40:38;;;;;;;;;;;;;;;26.90;41.71;94759.91;2965076;40;19928;-84
2021/08/11 00:42:39;;;;;;;;;;;;;;;26.87;41.80;94760.44;2966794;40;19939;-69
2021/08/11 00:44:41;;;;;;;;;;;;;;;26.86;41.75;94773.06;2966526;40;19945;-68
2021/08/11 00:46:43;;;;;;;;;;;;;;;26.86;41.84;94761.50;2962966;40;19941;-69
2021/08/11 00:48:45;;;;;;;;;;;;;;;26.85;41.92;94758.00;2966065;40;20017;-68
2021/08/11 00:50:46;;;;;;;;;;;;;;;26.83;41.87;94762.84;2962279;40;19936;-70
2021/08/11 00:52:48;;;;;;;;;;;;;;;26.63;42.11;94755.47;2965461;40;20017;-70
2021/08/11 00:54:50;;;;;;;;;;;;;;;26.42;42.14;94762.50;2963808;40;19940;-69
2021/08/11 00:56:52;;;;;;;;;;;;;;;26.10;42.70;94770.56;2963056;40;19939;-69
2021/08/11 00:58:53;;;;;;;;;;;;;;;25.93;42.82;94768.00;2966200;40;20025;-67
2021/08/11 01:00:55;;;;;;;;;;;;;;;25.94;43.10;94764.22;2962694;40;19928;-67
2021/08/11 01:02:57;;;;;;;;;;;;;;;26.04;42.72;94764.31;2965671;40;19948;-69
2021/08/11 01:04:59;;;;;;;;;;;;;;;26.10;42.46;94766.00;2965524;40;19940;-67
2021/08/11 01:07:01;;;;;;;;;;;;;;;26.17;42.24;94763.09;2964528;40;20294;-68
2021/08/11 01:09:02;;;;;;;;;;;;;;;26.24;42.15;94754.84;2964277;40;19952;-67
2021/08/11 01:11:04;;;;;;;;;;;;;;;26.25;41.88;94753.78;2965775;40;19940;-69
2021/08/11 01:13:06;;;;;;;;;;;;;;;26.26;41.97;94750.03;2963160;40;19951;-68
2021/08/11 01:15:07;;;;;;;;;;;;;;;26.31;41.83;94752.75;2964214;40;19935;-69
2021/08/11 01:17:09;;;;;;;;;;;;;;;26.31;41.87;94742.03;2962707;40;19929;-67
2021/08/11 01:19:11;;;;;;;;;;;;;;;26.33;41.77;94751.44;2964230;40;20428;-67
2021/08/11 01:21:15;;;;;;;;;;;;;;;26.36;41.56;94744.75;2969276;40;20330;-82
2021/08/11 01:23:17;;;;;;;;;;;;;;;26.36;41.57;94750.09;2968063;40;20600;-83
2021/08/11 01:25:18;;;;;;;;;;;;;;;26.33;41.86;94747.94;2963950;40;20317;-84
2021/08/11 01:27:22;;;;;;;;;;;;;;;26.27;41.75;94741.72;2966463;40;20303;-83
2021/08/11 01:29:32;;;;;;;;;;;;;;;26.26;42.00;94742.75;2968959;40;19940;-80
2021/08/11 01:31:47;;;;;;;;;;;;;;;26.27;41.92;94738.22;2968245;40;20028;-83
2021/08/11 01:33:49;;;;;;;;;;;;;;;26.27;41.81;94727.50;2963976;40;20153;-83
2021/08/11 01:35:57;;;;;;;;;;;;;;;26.27;41.85;94730.97;2966714;40;19952;-82
2021/08/11 01:37:59;;;;;;;;;;;;;;;26.20;42.06;94730.38;2975044;40;19940;-83
2021/08/11 01:40:01;;;;;;;;;;;;;;;26.14;42.21;94732.22;2965148;40;19948;-81
2021/08/11 01:42:02;;;;;;;;;;;;;;;26.11;42.18;94722.00;2965193;40;19968;-83
2021/08/11 01:44:04;;;;;;;;;;;;;;;26.13;42.14;94727.88;2965387;40;19933;-82
2021/08/11 01:46:06;;;;;;;;;;;;;;;26.06;42.29;94724.63;2970227;40;20026;-81
2021/08/11 01:48:11;;;;;;;;;;;;;;;25.93;42.70;94725.84;2968375;40;19936;-83
2021/08/11 01:50:15;;;;;;;;;;;;;;;25.89;42.55;94726.63;2964503;40;19948;-82
2021/08/11 01:52:16;;;;;;;;;;;;;;;25.86;42.73;94732.47;2966675;40;20304;-83
2021/08/11 01:54:18;;;;;;;;;;;;;;;25.84;43.17;94730.03;2962052;40;19968;-83
2021/08/11 01:56:19;;;;;;;;;;;;;;;25.87;43.31;94729.50;2970121;40;20028;-82
2021/08/11 01:58:21;;;;;;;;;;;;;;;25.92;43.14;94736.81;2973446;40;19940;-83
2021/08/11 02:00:23;;;;;;;;;;;;;;;25.99;43.06;94732.09;2969648;40;19944;-85
2021/08/11 02:02:25;;;;;;;;;;;;;;;26.02;43.79;94731.56;2969387;40;19999;-82
2021/08/11 02:04:26;;;;;;;;;;;;;;;26.03;43.86;94733.19;2975866;40;19955;-69
2021/08/11 02:06:28;;;;;;;;;;;;;;;26.02;44.11;94734.25;2966414;40;19964;-67
2021/08/11 02:08:30;;;;;;;;;;;;;;;26.02;44.45;94731.56;2965976;39;19943;-68
2021/08/11 02:10:31;;;;;;;;;;;;;;;26.02;44.51;94733.44;2966836;40;20281;-69
2021/08/11 02:12:33;;;;;;;;;;;;;;;25.97;44.55;94738.78;2966050;40;19928;-68
2021/08/11 02:14:34;;;;;;;;;;;;;;;25.97;44.83;94736.09;2966053;40;19986;-68
2021/08/11 02:16:38;;;;;;;;;;;;;;;26.02;44.55;94741.50;2963305;40;19940;-67
2021/08/11 02:18:40;;;;;;;;;;;;;;;26.00;44.65;94743.63;2966872;40;20182;-67
2021/08/11 02:20:42;;;;;;;;;;;;;;;26.03;44.83;94741.25;2964322;40;19928;-67
2021/08/11 02:22:43;;;;;;;;;;;;;;;26.05;45.04;94736.44;2971086;40;19936;-68
2021/08/11 02:24:45;;;;;;;;;;;;;;;26.03;44.92;94735.88;2968859;40;19929;-70
2021/08/11 02:26:50;;;;;;;;;;;;;;;26.02;44.91;94739.63;2963488;40;19941;-70
2021/08/11 02:29:04;;;;;;;;;;;;;;;26.03;44.97;94741.25;2968138;40;19972;-68
2021/08/11 02:31:05;;;;;;;;;;;;;;;26.00;45.09;94740.94;2969099;40;20274;-67
2021/08/11 02:33:07;;;;;;;;;;;;;;;25.94;45.11;94746.28;2964078;40;20017;-69
2021/08/11 02:35:09;;;;;;;;;;;;;;;25.94;45.26;94745.44;2965490;40;20224;-71
2021/08/11 02:37:14;;;;;;;;;;;;;;;25.92;45.24;94739.50;2971510;40;19964;-86
2021/08/11 02:39:18;;;;;;;;;;;;;;;25.92;45.27;94750.25;2964710;40;19985;-85
2021/08/11 02:41:22;;;;;;;;;;;;;;;25.92;45.25;94742.19;2964758;40;19936;-88
2021/08/11 02:43:30;;;;;;;;;;;;;;;25.91;45.25;94736.03;2964074;40;19941;-86
2021/08/11 02:45:32;;;;;;;;;;;;;;;25.87;45.33;94736.75;2965552;40;19973;-88
2021/08/11 02:47:34;;;;;;;;;;;;;;;25.69;45.47;94741.41;2971967;40;19936;-84
2021/08/11 02:49:35;;;;;;;;;;;;;;;25.49;45.59;94733.13;2965284;40;19940;-83
2021/08/11 02:51:37;;;;;;;;;;;;;;;25.24;45.83;94734.47;2968431;40;19921;-86
2021/08/11 02:53:40;;;;;;;;;;;;;;;24.75;47.40;94736.22;2970829;40;19941;-83
2021/08/11 02:55:41;;;;;;;;;;;;;;;24.54;48.06;94738.59;2966238;40;19960;-86
2021/08/11 02:57:43;;;;;;;;;;;;;;;24.43;47.73;94736.78;2968058;40;19945;-86
2021/08/11 02:59:44;;;;;;;;;;;;;;;24.40;47.91;94729.25;2967748;40;20326;-66
2021/08/11 03:01:46;;;;;;;;;;;;;;;24.46;47.57;94729.09;2965536;40;19988;-69
2021/08/11 03:03:48;;;;;;;;;;;;;;;24.49;47.48;94725.94;2967028;40;20310;-70
2021/08/11 03:05:49;;;;;;;;;;;;;;;24.39;47.50;94731.09;2965547;40;19939;-68
2021/08/11 03:07:51;;;;;;;;;;;;;;;24.33;48.06;94740.94;2964799;40;19937;-69
2021/08/11 03:09:52;;;;;;;;;;;;;;;24.30;48.04;94736.06;2964251;40;20024;-68
2021/08/11 03:11:54;;;;;;;;;;;;;;;24.35;48.02;94735.34;2966086;40;19932;-69
2021/08/11 03:13:55;;;;;;;;;;;;;;;24.40;47.97;94735.41;2967575;40;20373;-69
2021/08/11 03:15:57;;;;;;;;;;;;;;;24.46;47.92;94731.78;2964926;40;19940;-70
2021/08/11 03:17:59;;;;;;;;;;;;;;;24.54;47.85;94719.84;2966672;40;19928;-69
2021/08/11 03:20:00;;;;;;;;;;;;;;;24.69;47.62;94729.97;2965824;40;20284;-68
2021/08/11 03:22:04;;;;;;;;;;;;;;;24.73;47.66;94729.22;2968687;40;19941;-86
2021/08/11 03:24:06;;;;;;;;;;;;;;;24.71;47.76;94730.53;2976944;40;19973;-85
2021/08/11 03:26:07;;;;;;;;;;;;;;;24.53;48.27;94748.50;2971862;40;19996;-92
2021/08/11 03:28:09;;;;;;;;;;;;;;;24.46;48.29;94745.16;2965403;40;19937;-86
2021/08/11 03:30:11;;;;;;;;;;;;;;;24.40;48.56;94748.00;2966637;40;19986;-89
2021/08/11 03:32:13;;;;;;;;;;;;;;;24.36;48.91;94749.53;2968339;40;19947;-87
2021/08/11 03:34:14;;;;;;;;;;;;;;;24.36;48.91;94745.00;2966999;40;19965;-89
2021/08/11 03:36:17;;;;;;;;;;;;;;;24.46;48.49;94747.84;2966205;40;19933;-87
2021/08/11 03:38:19;;;;;;;;;;;;;;;24.51;48.43;94739.91;2966351;40;20359;-85
2021/08/11 03:40:21;;;;;;;;;;;;;;;24.58;48.44;94741.59;2970153;40;20363;-87
2021/08/11 03:42:23;;;;;;;;;;;;;;;24.67;48.18;94742.78;2976571;40;19973;-86
2021/08/11 03:44:25;;;;;;;;;;;;;;;24.77;47.93;94739.47;2974064;40;19946;-85
2021/08/11 03:46:26;;;;;;;;;;;;;;;24.78;47.82;94752.63;2973951;40;20031;-88
2021/08/11 03:48:28;;;;;;;;;;;;;;;24.81;47.67;94760.16;2973362;40;19933;-87
2021/08/11 03:50:29;;;;;;;;;;;;;;;24.82;47.64;94769.81;2974821;40;20000;-84
2021/08/11 03:52:31;;;;;;;;;;;;;;;24.76;47.56;94770.81;2975176;40;19973;-87
2021/08/11 03:54:33;;;;;;;;;;;;;;;24.74;47.63;94778.28;2973438;40;20010;-86
2021/08/11 03:56:34;;;;;;;;;;;;;;;24.81;47.83;94776.22;2973565;40;19957;-88
2021/08/11 03:58:36;;;;;;;;;;;;;;;24.88;47.47;94779.53;2971964;40;19932;-88
2021/08/11 04:00:38;;;;;;;;;;;;;;;24.94;47.18;94778.56;2972756;40;19951;-87
2021/08/11 04:02:40;;;;;;;;;;;;;;;25.03;47.04;94772.78;2963524;40;19932;-91
2021/08/11 04:04:42;;;;;;;;;;;;;;;24.71;47.56;94778.75;2964792;40;20288;-86
2021/08/11 04:06:43;;;;;;;;;;;;;;;24.67;47.79;94786.50;2968696;40;20013;-87
2021/08/11 04:08:45;;;;;;;;;;;;;;;24.53;47.95;94785.19;2974483;40;19940;-87
2021/08/11 04:10:46;;;;;;;;;;;;;;;24.11;48.90;94781.00;2971463;40;19952;-69
2021/08/11 04:12:48;;;;;;;;;;;;;;;23.40;51.19;94782.31;2965576;40;19936;-69
2021/08/11 04:14:50;;;;;;;;;;;;;;;22.96;52.22;94779.25;2965893;40;19943;-67
2021/08/11 04:16:52;;;;;;;;;;;;;;;22.73;53.06;94777.41;2965808;40;19941;-69
2021/08/11 04:18:53;;;;;;;;;;;;;;;22.81;53.11;94779.72;2965217;40;19936;-68
2021/08/11 04:20:55;;;;;;;;;;;;;;;22.59;53.54;94774.97;2966029;40;19936;-68
2021/08/11 04:22:56;;;;;;;;;;;;;;;22.59;53.42;94779.50;2971121;40;19972;-67
2021/08/11 04:24:58;;;;;;;;;;;;;;;22.73;53.12;94780.06;2968941;40;20362;-70
2021/08/11 04:26:59;;;;;;;;;;;;;;;22.84;53.34;94790.75;2970490;39;19940;-69
2021/08/11 04:29:01;;;;;;;;;;;;;;;23.15;52.56;94782.63;2966040;40;20229;-69
2021/08/11 04:31:02;;;;;;;;;;;;;;;23.45;51.62;94785.09;2966838;40;19944;-69
2021/08/11 04:33:06;;;;;;;;;;;;;;;23.70;50.98;94787.44;2966004;40;19941;-68
2021/08/11 04:35:08;;;;;;;;;;;;;;;23.92;50.02;94790.31;2969779;40;19936;-69
2021/08/11 04:37:10;;;;;;;;;;;;;;;23.87;50.28;94788.31;2967287;40;20269;-70
2021/08/11 04:39:11;;;;;;;;;;;;;;;23.80;50.71;94794.88;2965803;40;19944;-68
2021/08/11 04:41:13;;;;;;;;;;;;;;;23.88;50.29;94789.97;2965769;40;19940;-68
2021/08/11 04:43:15;;;;;;;;;;;;;;;24.00;49.67;94789.88;2971859;40;19940;-70
2021/08/11 04:45:16;;;;;;;;;;;;;;;24.10;49.44;94778.56;2965981;39;19929;-70
2021/08/11 04:47:18;;;;;;;;;;;;;;;24.07;49.80;94779.88;2971224;40;19948;-69
2021/08/11 04:49:19;;;;;;;;;;;;;;;24.20;49.59;94778.75;2967364;40;19932;-69
2021/08/11 04:51:21;;;;;;;;;;;;;;;24.37;49.14;94781.44;2964713;40;19944;-67
2021/08/11 04:53:23;;;;;;;;;;;;;;;24.59;48.62;94783.41;2964901;40;19944;-68
2021/08/11 04:55:24;;;;;;;;;;;;;;;24.77;48.44;94785.81;2965847;40;20564;-70
2021/08/11 04:57:26;;;;;;;;;;;;;;;24.83;47.97;94779.47;2963710;40;20061;-70
2021/08/11 04:59:28;;;;;;;;;;;;;;;24.76;48.04;94786.06;2965785;40;19969;-68
2021/08/11 05:01:29;;;;;;;;;;;;;;;24.77;48.16;94788.50;2967027;40;20228;-70
2021/08/11 05:03:35;;;;;;;;;;;;;;;24.61;48.61;94779.44;2966889;40;19936;-70
2021/08/11 05:05:40;;;;;;;;;;;;;;;24.62;48.36;94782.91;2966194;40;19932;-69
2021/08/11 05:07:41;;;;;;;;;;;;;;;24.50;48.78;94783.81;2967623;40;19932;-90
2021/08/11 05:09:43;;;;;;;;;;;;;;;24.61;48.50;94781.28;2965171;40;19968;-69
2021/08/11 05:11:44;;;;;;;;;;;;;;;24.67;48.51;94781.13;2963247;40;20013;-69
2021/08/11 05:13:46;;;;;;;;;;;;;;;24.65;48.36;94787.75;2966980;40;19944;-67
2021/08/11 05:15:47;;;;;;;;;;;;;;;24.58;48.45;94792.47;2965910;40;19957;-69
2021/08/11 05:17:49;;;;;;;;;;;;;;;24.48;49.00;94793.13;2966845;40;19944;-70
2021/08/11 05:19:51;;;;;;;;;;;;;;;24.56;48.82;94789.25;2971941;39;19952;-69
2021/08/11 05:21:52;;;;;;;;;;;;;;;24.51;48.64;94793.47;2964742;40;20304;-71
2021/08/11 05:23:54;;;;;;;;;;;;;;;24.51;48.76;94796.13;2969775;40;20020;-67
2021/08/11 05:25:56;;;;;;;;;;;;;;;24.27;49.18;94791.97;2967962;40;20290;-70
2021/08/11 05:27:57;;;;;;;;;;;;;;;23.97;49.88;94795.72;2966818;40;20438;-70
2021/08/11 05:29:59;;;;;;;;;;;;;;;23.96;49.89;94794.09;2962311;40;19961;-70
2021/08/11 05:32:01;;;;;;;;;;;;;;;23.87;50.31;94791.00;2971321;39;19940;-70
2021/08/11 05:34:02;;;;;;;;;;;;;;;24.07;49.60;94795.91;2971041;40;19932;-69
2021/08/11 05:36:04;;;;;;;;;;;;;;;24.29;49.26;94779.16;2973098;39;20218;-68
2021/08/11 05:38:05;;;;;;;;;;;;;;;24.52;48.71;94787.06;2965685;40;20323;-68
2021/08/11 05:40:07;;;;;;;;;;;;;;;24.80;48.02;94793.38;2964912;40;19943;-69
2021/08/11 05:42:09;;;;;;;;;;;;;;;25.11;47.38;94783.06;2962206;40;19932;-69
2021/08/11 05:44:10;;;;;;;;;;;;;;;25.44;46.45;94787.53;2963378;40;20260;-68
2021/08/11 05:46:12;;;;;;;;;;;;;;;25.63;45.92;94793.41;2966525;40;20199;-68
2021/08/11 05:48:13;;;;;;;;;;;;;;;25.81;45.52;94799.50;2968464;40;19940;-70
2021/08/11 05:50:15;;;;;;;;;;;;;;;25.95;45.28;94792.69;2964567;40;19944;-70
2021/08/11 05:52:17;;;;;;;;;;;;;;;26.04;45.05;94796.53;2968485;40;20367;-71
2021/08/11 05:54:18;;;;;;;;;;;;;;;26.22;44.68;94797.25;2963497;40;20024;-68
2021/08/11 05:56:20;;;;;;;;;;;;;;;26.38;44.30;94793.63;2968199;40;20016;-69
2021/08/11 05:58:22;;;;;;;;;;;;;;;26.54;43.93;94795.38;2966059;40;20010;-70
2021/08/11 06:00:23;;;;;;;;;;;;;;;26.62;43.81;94788.75;2967885;40;19952;-69
2021/08/11 06:02:27;;;;;;;;;;;;;;;26.69;43.28;94791.22;2966753;40;19932;-70
2021/08/11 06:04:29;;;;;;;;;;;;;;;26.78;43.27;94795.06;2962439;40;20202;-70
2021/08/11 06:06:30;;;;;;;;;;;;;;;26.86;43.19;94785.69;2974893;39;19944;-68
2021/08/11 06:08:33;;;;;;;;;;;;;;;26.94;42.63;94788.69;2972369;39;20280;-68
2021/08/11 06:10:35;;;;;;;;;;;;;;;27.00;42.50;94778.00;2967363;40;19940;-70
2021/08/11 06:12:36;;;;;;;;;;;;;;;26.99;42.58;94779.84;2972670;40;20320;-70
2021/08/11 06:14:38;;;;;;;;;;;;;;;27.03;42.60;94774.78;2972938;40;20452;-87
2021/08/11 06:16:40;;;;;;;;;;;;;;;27.08;42.20;94780.16;2972221;40;19985;-87
2021/08/11 06:18:41;;;;;;;;;;;;;;;26.92;42.44;94774.72;2964422;40;19955;-88
2021/08/11 06:20:43;;;;;;;;;;;;;;;26.94;42.80;94772.56;2964662;40;19969;-89
2021/08/11 06:22:44;;;;;;;;;;;;;;;27.07;42.32;94770.50;2966580;40;19933;-88
2021/08/11 06:24:46;;;;;;;;;;;;;;;26.97;42.60;94776.59;2967435;40;19945;-88
2021/08/11 06:26:48;;;;;;;;;;;;;;;26.90;43.10;94767.97;2968748;40;19936;-91
2021/08/11 06:28:49;;;;;;;;;;;;;;;26.76;43.35;94771.13;2998068;23;19983;-53
2021/08/11 06:30:51;;;;;;;;;;;;;;;26.66;43.46;94770.25;2961342;40;20016;-52
2021/08/11 06:32:52;;;;;;;;;;;;;;;26.89;42.94;94763.69;2957494;40;20014;-51
2021/08/11 06:34:56;;;;;;;;;;;;;;;26.90;43.28;94765.28;2957973;40;19973;-53
2021/08/11 06:36:58;;;;;;;;;;;;;;;27.03;43.08;94774.78;2960056;40;19956;-48
2021/08/11 06:38:59;;;;;;;;;;;;;;;27.03;42.77;94767.50;2956859;40;19948;-53
2021/08/11 06:41:01;;;;;;;;;;;;;;;26.88;43.24;94760.16;2961029;40;19944;-51
2021/08/11 06:43:03;;;;;;;;;;;;;;;26.96;43.03;94765.06;2958010;40;20025;-49
2021/08/11 06:45:05;;;;;;;;;;;;;;;27.04;43.18;94760.25;2957688;40;19932;-53
2021/08/11 06:47:06;;;;;;;;;;;;;;;26.94;42.92;94755.63;2960385;40;19952;-54
2021/08/11 06:49:08;;;;;;;;;;;;;;;27.07;42.66;94754.38;2956548;40;20258;-50
2021/08/11 06:51:09;;;;;;;;;;;;;;;27.17;42.77;94751.72;2951792;40;19961;-46
2021/08/11 06:53:11;;;;;;;;;;;;;;;27.32;41.81;94749.13;2954100;40;20014;-49
2021/08/11 06:55:13;;;;;;;;;;;;;;;27.31;42.10;94762.84;2956365;40;19936;-49
2021/08/11 06:57:15;;;;;;;;;;;;;;;27.25;42.62;94763.88;2955091;40;20371;-49
2021/08/11 06:59:16;;;;;;;;;;;;;;;26.98;43.02;94764.81;2952710;40;20045;-50
2021/08/11 07:01:18;;;;;;;;;;;;;;;27.02;43.27;94757.84;2954536;40;20301;-49
2021/08/11 07:03:22;;;;;;;;;;;;;;;27.17;43.21;94755.22;2954799;40;19939;-51
2021/08/11 07:05:24;;;;;;;;;;;;;;;27.26;42.92;94758.25;2955784;40;20067;-50
2021/08/11 07:07:26;;;;;;;;;;;;;;;27.39;42.95;94756.16;2959580;40;20032;-52
2021/08/11 07:09:27;;;;;;;;;;;;;;;27.30;42.76;94758.56;2954945;40;19937;-57
2021/08/11 07:11:28;;;;;;;;;;;;;;;27.16;43.27;94763.53;2961103;40;19945;-54
2021/08/11 07:13:30;;;;;;;;;;;;;;;27.17;43.23;94767.88;2956335;40;19948;-49
2021/08/11 07:15:32;;;;;;;;;;;;;;;27.29;42.98;94768.47;2958432;40;19944;-52
2021/08/11 07:17:33;;;;;;;;;;;;;;;27.41;43.00;94762.09;2956754;40;20021;-52
2021/08/11 07:19:35;;;;;;;;;;;;;;;27.55;42.67;94765.88;2958798;40;19941;-54
2021/08/11 07:21:36;;;;;;;;;;;;;;;27.67;42.71;94773.75;2962737;40;19948;-55
2021/08/11 07:23:38;;;;;;;;;;;;;;;27.71;41.92;94775.63;2960404;40;20036;-49
2021/08/11 07:25:40;;;;;;;;;;;;;;;27.92;40.94;94770.31;2959822;40;20026;-50
2021/08/11 07:27:41;;;;;;;;;;;;;;;27.75;40.87;94765.97;2957014;40;20297;-52
2021/08/11 07:29:43;;;;;;;;;;;;;;;27.60;41.76;94765.91;2956912;40;20290;-50
2021/08/11 07:31:44;;;;;;;;;;;;;;;27.72;41.38;94762.97;2954503;40;19939;-49
2021/08/11 07:33:46;;;;;;;;;;;;;;;27.95;41.78;94765.22;2958467;40;20260;-48
2021/08/11 07:35:48;;;;;;;;;;;;;;;27.95;41.66;94776.00;2957244;40;19932;-48
2021/08/11 07:37:50;;;;;;;;;;;;;;;27.98;41.39;94764.72;2956901;40;20241;-48
2021/08/11 07:39:55;;;;;;;;;;;;;;;28.06;41.51;94774.13;2956012;40;19939;-47
2021/08/11 07:41:57;;;;;;;;;;;;;;;28.06;40.62;94771.44;2956828;40;19997;-49
2021/08/11 07:43:59;;;;;;;;;;;;;;;27.94;41.01;94776.25;2956535;40;19936;-52
2021/08/11 07:46:01;;;;;;;;;;;;;;;28.13;40.00;94776.56;2956783;40;20251;-49
2021/08/11 07:48:08;;;;;;;;;;;;;;;28.26;40.06;94772.53;2955968;40;19945;-51
2021/08/11 07:50:09;;;;;;;;;;;;;;;28.32;40.49;94779.53;2955747;40;19948;-49
2021/08/11 07:52:11;;;;;;;;;;;;;;;28.13;40.97;94771.97;2960465;40;19945;-49
2021/08/11 07:54:12;;;;;;;;;;;;;;;28.16;40.00;94771.44;2956317;40;20296;-50
2021/08/11 07:56:14;;;;;;;;;;;;;;;28.22;40.32;94757.97;2955806;40;19941;-49
2021/08/11 07:58:15;;;;;;;;;;;;;;;28.37;39.93;94749.91;2953268;40;20425;-51
2021/08/11 08:00:17;;;;;;;;;;;;;;;28.63;39.25;94752.63;2955337;40;19937;-49
2021/08/11 08:02:19;;;;;;;;;;;;;;;28.49;39.88;94763.94;2954698;40;20200;-49
2021/08/11 08:04:20;;;;;;;;;;;;;;;28.47;39.47;94755.28;2957401;40;19961;-52
2021/08/11 08:06:22;;;;;;;;;;;;;;;28.52;38.22;94747.25;2953888;40;19933;-47
2021/08/11 08:08:24;;;;;;;;;;;;;;;28.83;38.40;94763.38;2958493;40;20447;-50
2021/08/11 08:10:26;;;;;;;;;;;;;;;28.92;37.87;94759.03;2956700;40;19947;-49
2021/08/11 08:12:28;;;;;;;;;;;;;;;28.97;36.99;94769.00;2956589;40;20262;-50
2021/08/11 08:14:29;;;;;;;;;;;;;;;29.03;36.45;94770.63;2957989;40;19959;-50
2021/08/11 08:16:31;;;;;;;;;;;;;;;29.18;36.46;94759.81;2954889;40;19948;-47
2021/08/11 08:18:33;;;;;;;;;;;;;;;29.15;35.98;94770.38;2957921;40;20014;-51
2021/08/11 08:20:35;;;;;;;;;;;;;;;29.10;35.82;94759.56;2956928;40;20033;-51
2021/08/11 08:22:37;;;;;;;;;;;;;;;29.43;35.43;94750.03;2955991;40;20043;-55
2021/08/11 08:24:38;;;;;;;;;;;;;;;29.64;34.75;94750.72;2956449;40;19973;-55
2021/08/11 08:26:42;;;;;;;;;;;;;;;29.76;34.10;94740.44;2957893;40;20252;-51
2021/08/11 08:28:48;;;;;;;;;;;;;;;29.71;33.97;94743.19;2957342;40;20062;-50
2021/08/11 08:30:49;;;;;;;;;;;;;;;29.94;33.66;94733.59;2956881;40;20198;-50
2021/08/11 08:32:51;;;;;;;;;;;;;;;30.14;32.22;94742.66;2955525;40;20003;-51
2021/08/11 08:34:54;;;;;;;;;;;;;;;30.13;32.19;94746.41;2955857;40;20197;-52
2021/08/11 08:36:55;;;;;;;;;;;;;;;29.86;32.47;94741.44;2955601;40;20046;-53
2021/08/11 08:38:57;;;;;;;;;;;;;;;29.88;32.32;94734.72;2957034;40;20180;-49
2021/08/11 08:40:58;;;;;;;;;;;;;;;30.24;31.67;94737.16;2959940;40;20017;-52
2021/08/11 08:43:00;;;;;;;;;;;;;;;30.42;31.47;94733.00;2959910;40;20041;-50
2021/08/11 08:45:02;;;;;;;;;;;;;;;30.16;30.34;94735.88;2958823;40;19939;-52
2021/08/11 08:47:03;;;;;;;;;;;;;;;29.99;31.05;94732.75;2956995;40;19937;-54
2021/08/11 08:49:06;;;;;;;;;;;;;;;29.86;31.63;94736.88;2953927;40;20021;-52
2021/08/11 08:51:11;;;;;;;;;;;;;;;29.90;31.25;94737.94;2956907;40;19940;-53
2021/08/11 08:53:13;;;;;;;;;;;;;;;30.02;31.31;94740.28;2960349;40;19956;-53
2021/08/11 08:55:15;;;;;;;;;;;;;;;30.21;31.06;94727.72;2956355;40;19947;-50
2021/08/11 08:57:16;;;;;;;;;;;;;;;30.44;30.82;94719.19;2958633;40;19932;-52
2021/08/11 08:59:18;;;;;;;;;;;;;;;30.58;30.67;94720.94;2957619;40;20285;-57
2021/08/11 09:01:20;;;;;;;;;;;;;;;30.59;30.05;94711.75;2958507;40;20283;-55
2021/08/11 09:03:22;;;;;;;;;;;;;;;30.69;29.22;94715.44;2958193;40;19936;-53
2021/08/11 09:05:26;;;;;;;;;;;;;;;30.51;28.88;94715.06;2957617;40;19945;-49
2021/08/11 09:07:27;;;;;;;;;;;;;;;30.51;28.93;94714.28;2954974;40;20231;-55
2021/08/11 09:09:35;;;;;;;;;;;;;;;30.58;28.07;94707.41;2956824;40;19929;-51
2021/08/11 09:11:38;;;;;;;;;;;;;;;30.75;27.62;94715.09;2960263;40;19945;-50
2021/08/11 09:13:40;;;;;;;;;;;;;;;30.74;27.60;94715.38;2962503;40;20025;-51
2021/08/11 09:15:42;;;;;;;;;;;;;;;30.92;27.88;94712.00;2959042;40;20014;-54
2021/08/11 09:17:44;;;;;;;;;;;;;;;31.14;27.60;94711.47;2961503;40;19933;-52
2021/08/11 09:19:46;;;;;;;;;;;;;;;31.28;27.08;94717.00;2957871;40;20157;-53
2021/08/11 09:22:03;;;;;;;;;;;;;;;31.19;27.72;94714.13;2957253;40;19936;-54
2021/08/11 09:24:17;;;;;;;;;;;;;;;31.10;27.84;94715.84;2954436;40;20065;-55
2021/08/11 09:26:19;;;;;;;;;;;;;;;31.08;28.37;94720.72;2959949;40;20002;-53
2021/08/11 09:28:21;;;;;;;;;;;;;;;31.28;28.52;94717.00;2961022;40;20202;-53
2021/08/11 09:30:33;;;;;;;;;;;;;;;31.32;28.30;94715.34;2954368;40;19932;-52
2021/08/11 09:32:49;;;;;;;;;;;;;;;31.38;28.69;94714.16;2956232;40;20020;-52
2021/08/11 09:34:54;;;;;;;;;;;;;;;31.72;27.70;94715.91;2958594;40;20084;-53
2021/08/11 09:36:58;;;;;;;;;;;;;;;31.66;28.15;94716.28;2958339;40;20263;-49
2021/08/11 09:39:01;;;;;;;;;;;;;;;31.70;27.99;94711.88;2951760;40;19937;-53
2021/08/11 09:41:03;;;;;;;;;;;;;;;31.61;28.29;94706.31;2955799;40;20018;-52
2021/08/11 09:43:04;;;;;;;;;;;;;;;31.68;28.04;94692.41;2956817;40;19976;-54
2021/08/11 09:45:08;;;;;;;;;;;;;;;31.74;28.24;94692.06;2957603;40;19952;-55
2021/08/11 09:47:14;;;;;;;;;;;;;;;31.90;27.69;94691.81;2957876;40;20283;-52
2021/08/11 09:49:17;;;;;;;;;;;;;;;31.82;27.55;94691.41;2957656;40;20440;-55
2021/08/11 09:51:19;;;;;;;;;;;;;;;31.89;27.58;94692.94;2962313;40;20005;-52
2021/08/11 09:53:28;;;;;;;;;;;;;;;31.93;27.25;94692.06;2958559;40;19941;-53
2021/08/11 09:55:30;;;;;;;;;;;;;;;31.90;27.27;94687.22;2958884;40;20033;-53
2021/08/11 09:57:31;;;;;;;;;;;;;;;31.83;27.60;94693.00;2956490;40;19945;-53
2021/08/11 09:59:41;;;;;;;;;;;;;;;31.45;27.75;94692.19;2960739;40;19989;-55
2021/08/11 10:01:42;;;;;;;;;;;;;;;31.58;27.43;94688.75;2960439;40;19966;-52
2021/08/11 10:04:11;;;;;;;;;;;;;;;31.67;25.97;94688.13;2953862;40;20494;-53
2021/08/11 10:06:25;;;;;;;;;;;;;;;31.36;26.43;94681.19;2951854;40;20257;-52
2021/08/11 10:08:27;;;;;;;;;;;;;;;31.57;26.10;94681.72;2957607;40;20046;-52
2021/08/11 10:10:36;;;;;;;;;;;;;;;31.86;25.27;94686.22;2958678;40;19940;-52
2021/08/11 10:12:38;;;;;;;;;;;;;;;31.91;24.57;94683.41;2960221;40;20270;-53
2021/08/11 10:14:39;;;;;;;;;;;;;;;32.05;24.72;94680.78;2952507;40;19937;-50
2021/08/11 10:16:42;;;;;;;;;;;;;;;32.00;25.58;94684.38;2955518;40;19963;-54
2021/08/11 10:18:43;;;;;;;;;;;;;;;32.02;25.55;94681.38;2957311;40;20327;-53
2021/08/11 10:20:45;;;;;;;;;;;;;;;31.98;25.99;94688.47;2956024;40;19948;-54
2021/08/11 10:22:46;;;;;;;;;;;;;;;32.10;25.92;94678.00;2958174;40;20411;-54
2021/08/11 10:24:50;;;;;;;;;;;;;;;32.21;25.02;94676.72;2957425;40;19944;-54
2021/08/11 10:26:53;;;;;;;;;;;;;;;32.40;24.82;94671.28;2957666;40;20022;-53
2021/08/11 10:28:55;;;;;;;;;;;;;;;32.49;24.99;94665.97;2959263;40;19943;-54
2021/08/11 10:30:56;;;;;;;;;;;;;;;32.14;25.41;94672.81;2959703;40;19953;-52
2021/08/11 10:32:58;;;;;;;;;;;;;;;32.11;25.65;94668.75;2960190;40;20090;-52
2021/08/11 10:34:59;;;;;;;;;;;;;;;32.37;25.77;94660.22;2960940;40;19940;-56
2021/08/11 10:37:01;;;;;;;;;;;;;;;32.37;24.60;94666.44;2955544;40;20239;-54